Terminal Aerodrome Forecast
Issued by NWS

Current Version | Previous Version | Graphics & Text | Print | Product List | Glossary On
Versions: 1 2 3 4 5 6 7 8 9 10 11 12 13 14 15 16 17 18 19
000
FTUS41 KPBZ 191700
TAFHLG
TAF
KHLG 191725Z 1918/2018 19013G24KT P6SM -SN BKN060 OVC090
     FM200400 23011KT P6SM BKN025
     FM201400 24013G21KT P6SM BKN030=

USA.gov is the U.S. government's official web portal to all federal, state and local government web resources and services.